St Agnes, United Kingdom
Current Conditions -  °F | °C
As of 1:50 PM on Sunday 25 Jan 2015 (Local Time) from EGHQ Reporting Station
Broken Clouds Broken Clouds  
Wind Chill: 40°   Ceiling: 1500
Heat Index: 46°   Visibility: 6mi
Dew Point: 43°   Wind: 14mph
Humidity: 87%   Direction: 220°SW
Pressure: 30.45"   Gusts: NA
Location:  50.31°N, 5.2°W
Report Text: EGHQ 251350Z 22012KT 9999 BKN015 08/06 Q1031
Loading
Personal Weather Stations






























Interactive Weather Map New forecast layout! Learn more

10-Day Weather Forecast

Advertisements
Track Severe Weather on mobile